createdAt,value
2023-11-29T00:01:25.057Z,14.83
2023-11-29T00:04:12.585Z,14.75
2023-11-29T00:07:00.241Z,14.75
2023-11-29T00:09:47.825Z,14.84
2023-11-29T00:12:35.339Z,14.88
2023-11-29T00:15:23.136Z,14.85
2023-11-29T00:18:10.935Z,14.72
2023-11-29T00:21:01.167Z,14.72
2023-11-29T00:23:48.721Z,14.64
2023-11-29T00:26:36.377Z,14.64
2023-11-29T00:29:25.986Z,14.71
2023-11-29T00:32:13.731Z,14.77
2023-11-29T00:35:01.298Z,14.70
2023-11-29T00:37:48.920Z,14.81
2023-11-29T00:40:36.417Z,14.77
2023-11-29T00:43:23.995Z,14.75
2023-11-29T00:46:11.558Z,14.72
2023-11-29T00:48:59.075Z,14.79
2023-11-29T00:51:46.786Z,14.81
2023-11-29T00:54:34.294Z,14.80
2023-11-29T00:57:21.934Z,14.81
2023-11-29T01:00:09.708Z,14.74
2023-11-29T01:02:59.592Z,14.69
2023-11-29T01:05:47.692Z,14.70
2023-11-29T01:08:35.356Z,14.76
2023-11-29T01:11:25.062Z,14.77
2023-11-29T01:14:13.555Z,14.78
2023-11-29T01:17:01.473Z,14.85
2023-11-29T01:19:48.984Z,14.68
2023-11-29T01:22:37.156Z,14.65
2023-11-29T01:25:24.735Z,14.64
2023-11-29T01:28:12.367Z,14.72
2023-11-29T01:30:59.863Z,14.69
2023-11-29T01:33:47.519Z,14.72
2023-11-29T01:36:35.095Z,14.83
2023-11-29T01:39:22.617Z,14.70
2023-11-29T01:42:11.926Z,14.66
2023-11-29T01:44:59.650Z,14.64
2023-11-29T01:47:47.571Z,14.70
2023-11-29T01:50:37.815Z,14.71
2023-11-29T01:53:30.912Z,14.69
2023-11-29T01:56:21.086Z,14.69
2023-11-29T01:59:08.798Z,14.70
2023-11-29T02:01:56.505Z,14.75
2023-11-29T02:04:44.621Z,14.71
2023-11-29T02:07:33.028Z,14.74
2023-11-29T02:10:20.575Z,14.66
2023-11-29T02:13:08.591Z,14.74
2023-11-29T02:15:56.130Z,14.74
2023-11-29T02:18:47.107Z,14.68
2023-11-29T02:21:34.737Z,14.63
2023-11-29T02:24:25.514Z,14.59
2023-11-29T02:27:13.256Z,14.51
2023-11-29T02:30:00.797Z,14.60
2023-11-29T02:32:48.550Z,14.60
2023-11-29T02:35:36.207Z,14.64
2023-11-29T02:38:23.901Z,14.66
2023-11-29T02:41:11.513Z,14.66
2023-11-29T02:44:00.260Z,14.57
2023-11-29T02:46:47.756Z,14.58
2023-11-29T02:49:35.660Z,14.61
2023-11-29T02:52:23.152Z,14.64
2023-11-29T02:55:10.722Z,14.68
2023-11-29T02:57:59.749Z,14.69
2023-11-29T03:00:47.424Z,14.67
2023-11-29T03:03:35.028Z,14.67
2023-11-29T03:06:22.655Z,14.68
2023-11-29T03:09:10.174Z,14.66
2023-11-29T03:11:57.888Z,14.64
2023-11-29T03:14:45.431Z,14.58
2023-11-29T03:17:33.196Z,14.58
2023-11-29T03:20:20.921Z,14.53
2023-11-29T03:23:08.445Z,14.51
2023-11-29T03:25:56.018Z,14.60
2023-11-29T03:28:43.546Z,14.65
2023-11-29T03:31:31.108Z,14.69
2023-11-29T03:34:19.015Z,14.67
2023-11-29T03:37:06.537Z,14.62
2023-11-29T03:39:54.100Z,14.72
2023-11-29T03:42:41.599Z,14.59
2023-11-29T03:45:30.132Z,14.62
2023-11-29T03:48:17.641Z,14.62
2023-11-29T03:51:05.262Z,14.58
2023-11-29T03:53:52.818Z,14.52
2023-11-29T03:56:40.400Z,14.55
2023-11-29T03:59:28.655Z,14.61
2023-11-29T04:02:16.285Z,14.64
2023-11-29T04:05:05.250Z,14.62
2023-11-29T04:07:54.057Z,14.62
2023-11-29T04:10:42.081Z,14.59
2023-11-29T04:13:30.068Z,14.65
2023-11-29T04:16:21.847Z,14.59
2023-11-29T04:19:09.429Z,14.58
2023-11-29T04:21:57.381Z,14.56
2023-11-29T04:24:45.613Z,14.46
2023-11-29T04:27:33.145Z,14.48
2023-11-29T04:30:22.771Z,14.54
2023-11-29T04:33:11.538Z,14.54
2023-11-29T04:35:59.133Z,14.44
2023-11-29T04:38:46.848Z,14.35
2023-11-29T04:41:34.490Z,14.25
2023-11-29T04:44:23.247Z,14.33
2023-11-29T04:47:10.832Z,14.23
2023-11-29T04:49:58.336Z,14.17
2023-11-29T04:52:45.832Z,14.23
2023-11-29T04:55:33.464Z,14.23
2023-11-29T04:58:21.147Z,14.30
2023-11-29T05:01:10.123Z,14.33
2023-11-29T05:03:57.717Z,14.42
2023-11-29T05:06:45.561Z,14.33
2023-11-29T05:09:33.095Z,14.30
2023-11-29T05:12:20.589Z,14.36
2023-11-29T05:15:08.462Z,14.38
2023-11-29T05:17:56.665Z,14.51
2023-11-29T05:20:44.447Z,14.52
2023-11-29T05:23:31.967Z,14.44
2023-11-29T05:26:19.533Z,14.48
2023-11-29T05:29:07.088Z,14.46
2023-11-29T05:31:54.594Z,14.43
2023-11-29T05:34:42.543Z,14.47
2023-11-29T05:37:30.065Z,14.53
2023-11-29T05:40:21.781Z,14.50
2023-11-29T05:43:09.281Z,14.49
2023-11-29T05:45:56.856Z,14.53
2023-11-29T05:48:44.353Z,14.55
2023-11-29T05:51:31.906Z,14.44
2023-11-29T05:54:20.054Z,14.44
2023-11-29T05:57:07.611Z,14.46
2023-11-29T05:59:57.331Z,14.55
2023-11-29T06:02:44.868Z,14.34
2023-11-29T06:05:32.498Z,14.14
2023-11-29T06:08:21.252Z,14.30
2023-11-29T06:11:08.863Z,14.50
2023-11-29T06:13:56.383Z,14.36
2023-11-29T06:16:43.880Z,14.30
2023-11-29T06:19:31.372Z,14.17
2023-11-29T06:22:18.912Z,14.35
2023-11-29T06:25:06.669Z,14.38
2023-11-29T06:27:54.224Z,14.28
2023-11-29T06:30:42.373Z,14.37
2023-11-29T06:33:29.936Z,14.40
2023-11-29T06:36:17.460Z,14.27
2023-11-29T06:39:05.460Z,14.04
2023-11-29T06:41:53.191Z,14.11
2023-11-29T06:44:40.827Z,14.27
2023-11-29T06:47:28.499Z,14.15
2023-11-29T06:50:16.219Z,14.29
2023-11-29T06:53:05.801Z,14.25
2023-11-29T06:55:53.747Z,14.09
2023-11-29T06:58:41.341Z,14.07
2023-11-29T07:01:29.001Z,14.07
2023-11-29T07:04:16.750Z,14.33
2023-11-29T07:07:04.465Z,14.36
2023-11-29T07:09:53.862Z,14.29
2023-11-29T07:12:41.405Z,14.41
2023-11-29T07:15:29.111Z,14.40
2023-11-29T07:18:16.699Z,14.39
2023-11-29T07:21:04.977Z,14.35
2023-11-29T07:23:52.662Z,14.28
2023-11-29T07:26:40.561Z,14.43
2023-11-29T07:29:29.529Z,14.38
2023-11-29T07:32:17.533Z,14.33
2023-11-29T07:35:05.520Z,14.26
2023-11-29T07:37:52.982Z,14.40
2023-11-29T07:40:40.499Z,14.31
2023-11-29T07:43:27.972Z,14.30
2023-11-29T07:46:15.581Z,14.17
2023-11-29T07:49:03.108Z,14.17
2023-11-29T07:51:50.658Z,14.00
2023-11-29T07:54:38.296Z,13.93
2023-11-29T07:57:25.805Z,14.19
2023-11-29T08:00:16.427Z,14.25
2023-11-29T08:03:04.341Z,14.07
2023-11-29T08:05:52.210Z,13.97
2023-11-29T08:08:40.053Z,14.18
2023-11-29T08:11:29.141Z,14.14
2023-11-29T08:14:16.911Z,14.14
2023-11-29T08:17:04.887Z,14.20
2023-11-29T08:19:52.552Z,14.06
2023-11-29T08:22:40.063Z,14.25
2023-11-29T08:25:27.936Z,14.36
2023-11-29T08:28:15.484Z,14.14
2023-11-29T08:31:03.128Z,14.14
2023-11-29T08:33:50.836Z,13.95
2023-11-29T08:36:38.337Z,14.04
2023-11-29T08:39:27.340Z,14.15
2023-11-29T08:42:15.038Z,14.20
2023-11-29T08:45:03.011Z,14.12
2023-11-29T08:47:50.782Z,14.03
2023-11-29T08:50:38.333Z,14.09
2023-11-29T08:53:33.412Z,13.96
2023-11-29T08:56:25.444Z,14.02
2023-11-29T08:59:12.980Z,13.90
2023-11-29T09:02:01.163Z,13.75
2023-11-29T09:04:49.145Z,13.75
2023-11-29T09:07:37.784Z,13.75
2023-11-29T09:10:26.049Z,13.98
2023-11-29T09:13:13.565Z,14.09
2023-11-29T09:16:01.163Z,14.29
2023-11-29T09:18:49.386Z,14.06
2023-11-29T09:21:36.925Z,14.11
2023-11-29T09:24:24.416Z,14.08
2023-11-29T09:27:13.082Z,14.10
2023-11-29T09:30:01.763Z,14.22
2023-11-29T09:32:50.052Z,14.34
2023-11-29T09:35:37.668Z,14.36
2023-11-29T09:38:25.585Z,14.44
2023-11-29T09:41:14.272Z,14.36
2023-11-29T09:44:04.534Z,14.34
2023-11-29T09:46:53.004Z,14.38
2023-11-29T09:49:40.583Z,14.33
2023-11-29T09:52:28.242Z,14.34
2023-11-29T09:55:15.934Z,14.36
2023-11-29T09:58:04.197Z,14.21
2023-11-29T10:00:51.704Z,13.97
2023-11-29T10:03:39.421Z,14.19
2023-11-29T10:06:27.023Z,14.30
2023-11-29T10:09:14.970Z,14.26
2023-11-29T10:12:02.552Z,14.32
2023-11-29T10:14:57.581Z,14.42
2023-11-29T10:17:51.819Z,14.37
2023-11-29T10:20:39.500Z,14.43
2023-11-29T10:23:27.152Z,14.49
2023-11-29T10:26:14.956Z,14.51
2023-11-29T10:29:02.529Z,14.50
2023-11-29T10:31:51.888Z,14.35
2023-11-29T10:34:39.911Z,14.43
2023-11-29T10:37:27.537Z,14.46
2023-11-29T10:40:18.324Z,14.42
2023-11-29T10:43:07.025Z,14.34
2023-11-29T10:45:59.600Z,14.43
2023-11-29T10:48:51.760Z,14.43
2023-11-29T10:51:40.188Z,14.36
2023-11-29T10:54:39.806Z,14.38
2023-11-29T10:57:58.807Z,14.19
2023-11-29T11:00:46.438Z,14.38
2023-11-29T11:03:44.796Z,14.06
2023-11-29T11:06:32.977Z,14.06
2023-11-29T11:09:29.696Z,14.06
2023-11-29T11:12:32.980Z,14.13
2023-11-29T11:15:23.366Z,14.27
2023-11-29T11:18:12.381Z,14.18
2023-11-29T11:21:04.483Z,13.93
2023-11-29T11:23:52.809Z,13.97
2023-11-29T11:27:00.299Z,14.17
2023-11-29T11:29:47.972Z,13.96
2023-11-29T11:32:38.362Z,14.17
2023-11-29T11:35:30.429Z,14.15
2023-11-29T11:38:19.275Z,14.13
2023-11-29T11:41:07.029Z,14.11
2023-11-29T11:43:54.565Z,13.89
2023-11-29T11:46:42.110Z,13.94
2023-11-29T11:49:29.729Z,14.07
2023-11-29T11:52:17.291Z,14.30
2023-11-29T11:55:09.420Z,14.26
2023-11-29T11:57:59.556Z,14.35
2023-11-29T12:00:48.272Z,14.36
2023-11-29T12:03:36.527Z,14.09
2023-11-29T12:06:24.091Z,14.10
2023-11-29T12:09:13.803Z,14.04
2023-11-29T12:12:09.016Z,14.15
2023-11-29T12:14:57.150Z,14.26
2023-11-29T12:17:45.868Z,14.08
2023-11-29T12:20:34.197Z,13.75
2023-11-29T12:23:31.230Z,13.89
2023-11-29T12:26:18.897Z,14.11
2023-11-29T12:29:06.640Z,13.89
2023-11-29T12:31:54.189Z,14.09
2023-11-29T12:34:42.497Z,14.29
2023-11-29T12:37:30.164Z,14.05
2023-11-29T12:40:19.025Z,14.28
2023-11-29T12:43:07.291Z,14.40
2023-11-29T12:45:56.834Z,14.21
2023-11-29T12:48:45.917Z,14.09
2023-11-29T12:51:33.835Z,13.97
2023-11-29T12:54:23.755Z,13.83
2023-11-29T12:57:11.985Z,13.73
2023-11-29T12:59:59.728Z,13.89
2023-11-29T13:02:48.302Z,13.82
2023-11-29T13:05:35.905Z,13.91
2023-11-29T13:08:23.412Z,14.07
2023-11-29T13:11:10.963Z,14.20
2023-11-29T13:13:58.472Z,13.96
2023-11-29T13:16:45.969Z,13.77
2023-11-29T13:19:33.607Z,13.74
2023-11-29T13:22:21.125Z,13.76
2023-11-29T13:25:08.706Z,13.91
2023-11-29T13:27:56.237Z,13.88
2023-11-29T13:30:44.785Z,13.87
2023-11-29T13:33:32.405Z,13.93
2023-11-29T13:36:20.726Z,13.62
2023-11-29T13:39:12.489Z,13.88
2023-11-29T13:42:00.383Z,14.06
2023-11-29T13:44:49.294Z,14.09
2023-11-29T13:47:38.514Z,14.00
2023-11-29T13:50:26.969Z,13.92
2023-11-29T13:53:14.633Z,13.53
2023-11-29T13:56:02.309Z,13.67
2023-11-29T13:58:49.949Z,13.66
2023-11-29T14:01:37.928Z,13.89
2023-11-29T14:04:25.827Z,14.15
2023-11-29T14:07:13.540Z,13.81
2023-11-29T14:10:01.091Z,13.91
2023-11-29T14:12:48.643Z,13.98
2023-11-29T14:15:37.272Z,13.86
2023-11-29T14:18:25.056Z,13.52
2023-11-29T14:21:14.111Z,13.40
2023-11-29T14:24:01.737Z,13.40
2023-11-29T14:26:51.055Z,13.85
2023-11-29T14:29:39.638Z,14.09
2023-11-29T14:32:27.352Z,14.11
2023-11-29T14:35:14.898Z,14.17
2023-11-29T14:38:04.352Z,14.10
2023-11-29T14:41:03.181Z,14.08
2023-11-29T14:43:57.923Z,13.91
2023-11-29T14:46:45.496Z,13.92
2023-11-29T14:49:33.182Z,14.04
2023-11-29T14:52:20.781Z,14.12
2023-11-29T14:55:08.401Z,14.19
2023-11-29T14:57:55.884Z,14.17
2023-11-29T15:00:43.410Z,14.20
2023-11-29T15:03:31.066Z,14.29
2023-11-29T15:06:18.628Z,14.29
2023-11-29T15:09:06.424Z,14.37
2023-11-29T15:11:56.041Z,14.41
2023-11-29T15:14:43.786Z,14.44
2023-11-29T15:17:31.461Z,14.21
2023-11-29T15:20:19.164Z,14.13
2023-11-29T15:23:06.633Z,14.10
2023-11-29T15:25:54.273Z,14.06
2023-11-29T15:28:41.741Z,14.05
2023-11-29T15:31:29.296Z,14.13
2023-11-29T15:34:16.897Z,14.21
2023-11-29T15:37:04.784Z,14.04
2023-11-29T15:39:52.449Z,13.97
2023-11-29T15:42:40.593Z,14.01
2023-11-29T15:45:28.197Z,14.14
2023-11-29T15:48:15.838Z,14.20
2023-11-29T15:51:03.445Z,14.17
2023-11-29T15:53:51.315Z,14.21
2023-11-29T15:56:38.916Z,14.25
2023-11-29T15:59:26.416Z,14.25
2023-11-29T16:02:14.064Z,14.31
2023-11-29T16:05:01.722Z,14.32
2023-11-29T16:07:51.893Z,14.22
2023-11-29T16:10:39.394Z,14.24
2023-11-29T16:13:26.892Z,14.17
2023-11-29T16:16:14.487Z,14.22
2023-11-29T16:19:02.679Z,14.33
2023-11-29T16:21:50.229Z,14.29
2023-11-29T16:24:37.725Z,14.22
2023-11-29T16:27:27.883Z,14.25
2023-11-29T16:30:15.775Z,14.24
2023-11-29T16:33:04.317Z,14.36
2023-11-29T16:35:51.961Z,14.29
2023-11-29T16:38:39.619Z,14.28
2023-11-29T16:41:27.170Z,14.33
2023-11-29T16:44:14.743Z,14.41
2023-11-29T16:47:02.304Z,14.39
2023-11-29T16:49:49.795Z,14.43
2023-11-29T16:52:37.418Z,14.26
2023-11-29T16:55:24.993Z,14.19
2023-11-29T16:58:13.312Z,14.06
2023-11-29T17:01:00.846Z,14.04
2023-11-29T17:03:50.525Z,14.18
2023-11-29T17:06:38.372Z,14.16
2023-11-29T17:09:25.945Z,14.18
2023-11-29T17:12:14.079Z,14.27
2023-11-29T17:15:01.710Z,14.34
2023-11-29T17:17:50.069Z,14.29
2023-11-29T17:20:37.675Z,14.33
2023-11-29T17:23:25.346Z,14.39
2023-11-29T17:26:12.842Z,14.31
2023-11-29T17:29:00.442Z,14.35
2023-11-29T17:31:48.365Z,14.41
2023-11-29T17:34:38.023Z,14.44
2023-11-29T17:37:25.552Z,14.48
2023-11-29T17:40:13.096Z,14.35
2023-11-29T17:43:00.981Z,14.41
2023-11-29T17:45:52.541Z,14.24
2023-11-29T17:48:41.318Z,14.12
2023-11-29T17:51:29.529Z,13.99
2023-11-29T17:54:17.246Z,14.13
2023-11-29T17:57:05.150Z,14.20
2023-11-29T17:59:53.922Z,14.27
2023-11-29T18:02:41.582Z,14.31
2023-11-29T18:05:29.257Z,14.25
2023-11-29T18:08:16.840Z,13.95
2023-11-29T18:11:04.502Z,13.99
2023-11-29T18:13:51.986Z,14.22
2023-11-29T18:16:41.144Z,14.12
2023-11-29T18:19:29.277Z,14.27
2023-11-29T18:22:16.909Z,14.21
2023-11-29T18:25:04.645Z,14.26
2023-11-29T18:27:52.276Z,14.31
2023-11-29T18:30:40.878Z,14.36
2023-11-29T18:33:31.562Z,14.23
2023-11-29T18:36:20.954Z,14.36
2023-11-29T18:39:09.023Z,14.20
2023-11-29T18:41:57.242Z,14.05
2023-11-29T18:44:44.815Z,14.07
2023-11-29T18:47:32.415Z,14.06
2023-11-29T18:50:19.975Z,14.00
2023-11-29T18:53:07.772Z,14.10
2023-11-29T18:55:55.349Z,14.03
2023-11-29T18:58:42.946Z,14.04
2023-11-29T19:01:30.900Z,14.21
2023-11-29T19:04:19.736Z,14.19
2023-11-29T19:07:07.339Z,14.28
2023-11-29T19:09:54.915Z,14.21
2023-11-29T19:12:42.596Z,14.21
2023-11-29T19:15:30.387Z,14.25
2023-11-29T19:18:18.147Z,14.14
2023-11-29T19:21:08.318Z,13.88
2023-11-29T19:23:58.610Z,13.87
2023-11-29T19:26:47.028Z,13.88
2023-11-29T19:29:34.929Z,13.92
2023-11-29T19:32:22.443Z,13.75
2023-11-29T19:35:18.538Z,13.79
2023-11-29T19:38:13.135Z,13.77
2023-11-29T19:41:00.654Z,13.67
2023-11-29T19:43:49.300Z,13.69
2023-11-29T19:46:36.916Z,13.33
2023-11-29T19:49:24.665Z,13.46
2023-11-29T19:52:12.368Z,13.59
2023-11-29T19:55:02.918Z,13.71
2023-11-29T19:57:50.868Z,13.91
2023-11-29T20:00:39.950Z,13.97
2023-11-29T20:03:27.676Z,14.07
2023-11-29T20:06:24.659Z,14.08
2023-11-29T20:09:17.784Z,14.11
2023-11-29T20:12:06.585Z,14.15
2023-11-29T20:14:57.893Z,14.10
2023-11-29T20:17:46.077Z,14.07
2023-11-29T20:20:46.100Z,14.13
2023-11-29T20:23:41.705Z,14.14
2023-11-29T20:26:29.444Z,14.07
2023-11-29T20:29:17.057Z,14.18
2023-11-29T20:32:04.747Z,14.04
2023-11-29T20:35:08.699Z,14.05
2023-11-29T20:37:59.814Z,14.15
2023-11-29T20:40:48.359Z,14.19
2023-11-29T20:43:35.982Z,14.04
2023-11-29T20:46:23.509Z,13.97
2023-11-29T20:49:11.436Z,13.78
2023-11-29T20:51:58.930Z,13.87
2023-11-29T20:54:46.452Z,13.96
2023-11-29T20:57:33.995Z,14.05
2023-11-29T21:00:21.557Z,13.62
2023-11-29T21:03:09.232Z,13.88
2023-11-29T21:05:56.951Z,13.87
2023-11-29T21:08:45.108Z,13.93
2023-11-29T21:11:32.616Z,13.90
2023-11-29T21:14:20.194Z,13.62
2023-11-29T21:17:08.153Z,13.60
2023-11-29T21:19:55.664Z,13.51
2023-11-29T21:22:43.281Z,13.53
2023-11-29T21:25:32.049Z,13.73
2023-11-29T21:28:19.544Z,13.68
2023-11-29T21:31:07.529Z,13.67
2023-11-29T21:33:55.698Z,13.77
2023-11-29T21:36:43.693Z,13.66
2023-11-29T21:39:31.268Z,13.66
2023-11-29T21:42:18.895Z,13.62
2023-11-29T21:45:06.708Z,13.63
2023-11-29T21:47:54.797Z,13.55
2023-11-29T21:50:42.538Z,13.58
2023-11-29T21:53:30.050Z,13.55
2023-11-29T21:56:18.950Z,13.53
2023-11-29T21:59:06.403Z,13.73
2023-11-29T22:01:54.239Z,13.80
2023-11-29T22:04:43.987Z,13.77
2023-11-29T22:07:31.816Z,13.66
2023-11-29T22:10:20.048Z,13.56
2023-11-29T22:13:07.727Z,13.51
2023-11-29T22:15:55.315Z,13.40
2023-11-29T22:18:43.138Z,13.47
2023-11-29T22:21:30.673Z,13.69
2023-11-29T22:24:18.193Z,13.71
2023-11-29T22:27:05.801Z,13.65
2023-11-29T22:29:53.661Z,13.72
2023-11-29T22:32:44.610Z,13.60
2023-11-29T22:35:32.230Z,13.40
2023-11-29T22:38:20.547Z,13.38
2023-11-29T22:41:08.709Z,13.42
2023-11-29T22:43:57.108Z,13.35
2023-11-29T22:46:44.699Z,13.28
2023-11-29T22:49:32.763Z,13.40
2023-11-29T22:52:20.266Z,13.37
2023-11-29T22:55:08.163Z,13.42
2023-11-29T22:57:55.679Z,13.49
2023-11-29T23:00:43.190Z,13.53
2023-11-29T23:03:34.208Z,13.51
2023-11-29T23:06:23.180Z,13.57
2023-11-29T23:09:10.751Z,13.57
2023-11-29T23:12:01.052Z,13.50
2023-11-29T23:14:48.609Z,13.48
2023-11-29T23:17:36.198Z,13.47
2023-11-29T23:20:23.818Z,13.56
2023-11-29T23:23:14.403Z,13.41
2023-11-29T23:26:07.937Z,13.42
2023-11-29T23:28:55.492Z,13.37
2023-11-29T23:31:43.109Z,13.48
2023-11-29T23:34:30.673Z,13.42
2023-11-29T23:37:18.175Z,13.33
2023-11-29T23:40:06.103Z,13.40
2023-11-29T23:42:54.021Z,13.46
2023-11-29T23:45:41.581Z,13.53
2023-11-29T23:48:29.189Z,13.52
2023-11-29T23:51:16.765Z,13.62
2023-11-29T23:54:04.509Z,13.57
2023-11-29T23:56:52.128Z,13.50
2023-11-29T23:59:40.402Z,13.50
